Portada
METAR-TAF:

METAR-TAF

Aeropuertos :

Aeropuerto Internacional de Kuwait

Ciudad de Kuwait, Kuwait

latitud: 29-13N, longitud: 047-59E, altitud: 55 m

Observación

El informe se hizo hace 35 minutos, a las 12:00 UTC
Viento 5 kt del noreste
Temperatura 32°C
Humedad 16%
Presión 1015 hPa
Visibilidad 10 km o más
sin nubes por debajo de 1500 m y sin presencia de cumulonimbus.

METAR: OKBK 041200Z 05005KT CAVOK 32/03 Q1015 NOSIG

Hora: 15:35 (12:35 UTC)

Pronóstico

El informe se hizo hace 1 hora y 50 minutos, a las 10:45 UTC
Pronóstico válido del 04 a las 12 UTC al 05 a las 18 UTC
Viento 8 kt del noreste
Visibilidad: 7000 m
Temporalmente
del 04 a las 15 UTC al 05 a las 03 UTC
Viento 3 kt con dirección variable
Evolucionando progresivamente
del 05 a las 03 UTC al 05 a las 05 UTC
Viento 8 kt del norte con ráfagas de 18 kt

TAF: OKBK 041045Z 0412/0518 04008KT 7000 NSC TEMPO 0415/0503 VRB03KT BECMG 0503/0505 36008G18KT

Observaciones y pronósticos meteorológicos de más de 4000 aeropuertos (mensajes METAR y TAF).

Los puntos amarillos y rojos representan las estaciones disponibles.

Ponga el ratón en el punto deseado para ver el nombre de la estación.

Haga clic para ver las observaciones y los pronósticos meteorológicos.

Para cambiar el mapa : haga clic en los botones verdes con una cruz de color negro para hacer un zoom, en el botón verde con un guión para alejar o en las flechas verdes para mapas adyacentes.


METAR-TAF: